Time;durP1;ratioP1;P1;durP2;ratioP2;P2;SDS_P1;SDS_P2;PMS_P1;PMS_P2;Temp;Humidity;BMP_temperature;BMP_pressure;BME280_temperature;BME280_humidity;BME280_pressure;Samples;Min_cycle;Max_cycle;Signal;HPM_P1;HPM_P2
2023/02/23 00:01:26;;;;;;;25.13;18.48;;;;;;;9.52;63.94;96320.75;5052624;28;20095;-77
2023/02/23 00:03:55;;;;;;;23.02;16.52;;;;;;;9.51;64.83;96322.53;5053072;28;20041;-77
2023/02/23 00:06:24;;;;;;;25.10;16.60;;;;;;;9.55;65.80;96321.16;5053008;28;20048;-76
2023/02/23 00:08:53;;;;;;;23.42;16.17;;;;;;;9.62;66.02;96318.63;5051875;28;20041;-76
2023/02/23 00:11:21;;;;;;;27.80;17.65;;;;;;;9.64;64.87;96317.50;5052562;28;20052;-77
2023/02/23 00:13:50;;;;;;;22.95;17.23;;;;;;;9.63;64.43;96315.06;5052537;28;20049;-76
2023/02/23 00:16:20;;;;;;;21.85;16.08;;;;;;;9.61;65.23;96312.63;5052306;28;20083;-77
2023/02/23 00:18:49;;;;;;;25.45;17.42;;;;;;;9.61;64.62;96309.22;5052084;28;20041;-77
2023/02/23 00:21:19;;;;;;;23.20;17.25;;;;;;;9.59;64.27;96319.00;5061440;28;20071;-77
2023/02/23 00:23:49;;;;;;;25.00;17.90;;;;;;;9.52;64.63;96313.72;5066832;28;20076;-77
2023/02/23 00:26:19;;;;;;;26.35;18.73;;;;;;;9.49;64.06;96316.72;5056652;28;20135;-77
2023/02/23 00:28:50;;;;;;;26.52;18.38;;;;;;;9.44;64.58;96312.03;5051636;28;20414;-76
2023/02/23 00:31:22;;;;;;;28.65;19.52;;;;;;;9.42;64.93;96308.81;5052680;28;20048;-76
2023/02/23 00:33:50;;;;;;;28.23;18.83;;;;;;;9.37;64.93;96308.53;5052653;28;20049;-77
2023/02/23 00:36:17;;;;;;;24.60;17.88;;;;;;;9.34;65.16;96310.72;5052132;28;20301;-77
2023/02/23 00:38:45;;;;;;;26.60;19.45;;;;;;;9.32;65.24;96308.28;5052282;28;20446;-77
2023/02/23 00:41:16;;;;;;;28.42;20.10;;;;;;;9.29;65.68;96313.81;5052663;28;20048;-77
2023/02/23 00:43:46;;;;;;;28.08;20.35;;;;;;;9.28;65.49;96302.63;5052829;28;20541;-77
2023/02/23 00:46:16;;;;;;;29.70;20.35;;;;;;;9.28;65.95;96314.81;5052215;28;20044;-77
2023/02/23 00:48:44;;;;;;;24.70;17.33;;;;;;;9.30;67.12;96305.03;5051572;28;20052;-77
2023/02/23 00:51:13;;;;;;;24.83;16.90;;;;;;;9.38;67.44;96306.72;5052220;28;20106;-77
2023/02/23 00:53:41;;;;;;;28.60;20.40;;;;;;;9.46;67.43;96315.25;5051872;28;20049;-77
2023/02/23 00:56:10;;;;;;;30.23;21.73;;;;;;;9.51;66.39;96311.28;5052104;28;20049;-77
2023/02/23 00:58:38;;;;;;;34.78;20.48;;;;;;;9.48;65.80;96307.25;5051193;28;20524;-77
2023/02/23 01:01:06;;;;;;;30.75;20.13;;;;;;;9.47;65.76;96311.66;5051911;28;20531;-77
2023/02/23 01:03:36;;;;;;;27.60;18.95;;;;;;;9.43;65.73;96312.22;5053125;28;20404;-77
2023/02/23 01:06:06;;;;;;;31.40;20.42;;;;;;;9.37;65.65;96311.13;5056067;28;20084;-77
2023/02/23 01:08:35;;;;;;;26.33;19.60;;;;;;;9.31;66.23;96316.25;5055164;28;20045;-77
2023/02/23 01:11:08;;;;;;;28.92;20.30;;;;;;;9.27;66.59;96315.81;5055928;28;20084;-77
2023/02/23 01:13:36;;;;;;;;;;;;;;;9.28;66.49;96315.63;5056150;28;20136;-77
2023/02/23 01:16:05;;;;;;;27.65;19.02;;;;;;;9.31;67.62;96317.06;5056026;28;19921;-77
2023/02/23 01:18:36;;;;;;;34.38;21.50;;;;;;;9.33;67.06;96309.88;5054955;28;20135;-76
2023/02/23 01:21:05;;;;;;;31.33;22.30;;;;;;;9.33;66.28;96298.66;5056194;28;20056;-77
2023/02/23 01:23:33;;;;;;;34.50;20.88;;;;;;;9.29;66.41;96298.22;5055955;28;20053;-77
2023/02/23 01:26:00;;;;;;;32.33;21.80;;;;;;;9.28;66.53;96301.81;5055530;28;20045;-77
2023/02/23 01:28:28;;;;;;;28.88;19.77;;;;;;;9.28;67.35;96307.03;5054668;28;20045;-76
2023/02/23 01:30:56;;;;;;;31.45;20.50;;;;;;;9.26;66.87;96304.59;5055433;28;20051;-77
2023/02/23 01:33:23;;;;;;;31.23;20.88;;;;;;;9.21;66.65;96295.72;5055390;28;20083;-77
2023/02/23 01:36:00;;;;;;;29.50;20.58;;;;;;;9.17;66.82;96299.66;5055302;28;20048;-77
2023/02/23 01:38:27;;;;;;;31.15;21.90;;;;;;;9.13;66.85;96293.22;5054627;28;20056;-77
2023/02/23 01:40:55;;;;;;;33.78;21.90;;;;;;;9.08;66.80;96291.94;5055307;28;20083;-77
2023/02/23 01:43:25;;;;;;;33.50;23.17;;;;;;;9.05;67.09;96292.31;5055068;28;20055;-77
2023/02/23 01:45:54;;;;;;;27.90;20.13;;;;;;;9.10;68.75;96296.19;5055034;28;20055;-76
2023/02/23 01:48:26;;;;;;;35.28;23.08;;;;;;;9.11;67.33;96293.38;5054727;28;20072;-77
2023/02/23 01:50:57;;;;;;;31.20;21.55;;;;;;;9.06;67.04;96299.13;5055314;28;20171;-76
2023/02/23 01:53:28;;;;;;;31.42;21.95;;;;;;;9.02;67.45;96295.25;5054971;28;20064;-77
2023/02/23 01:56:00;;;;;;;35.83;22.67;;;;;;;8.99;67.25;96293.03;5054801;28;20052;-77
2023/02/23 01:58:29;;;;;;;33.25;21.50;;;;;;;8.96;67.34;96290.75;5054444;28;20055;-77
2023/02/23 02:01:01;;;;;;;35.45;23.02;;;;;;;8.92;67.67;96289.53;5054871;28;20056;-77
2023/02/23 02:03:33;;;;;;;33.40;21.80;;;;;;;8.88;67.90;96293.47;5054933;28;20136;-77
2023/02/23 02:06:02;;;;;;;32.72;21.55;;;;;;;8.86;67.69;96287.63;5054780;28;20168;-77
2023/02/23 02:08:33;;;;;;;34.70;21.40;;;;;;;8.86;67.82;96292.84;5054026;28;20139;-77
2023/02/23 02:11:08;;;;;;;33.15;23.83;;;;;;;8.86;67.57;96287.63;5054666;28;20053;-77
2023/02/23 02:13:36;;;;;;;35.75;23.02;;;;;;;8.85;67.59;96286.00;5054818;28;20610;-76
2023/02/23 02:16:21;;;;;;;32.75;22.40;;;;;;;8.82;68.43;96278.56;5054097;28;20056;-76
2023/02/23 02:19:04;;;;;;;39.38;22.73;;;;;;;8.84;68.44;96284.41;5053856;28;20140;-76
2023/02/23 02:21:59;;;;;;;31.73;20.58;;;;;;;8.89;68.95;96282.06;5054522;28;20071;-77
2023/02/23 02:24:46;;;;;;;36.38;24.08;;;;;;;8.91;68.73;96282.69;5054356;28;20080;-77
2023/02/23 02:27:27;;;;;;;32.90;21.92;;;;;;;8.91;68.53;96274.09;5054163;28;20091;-76
2023/02/23 02:30:34;;;;;;;33.88;22.70;;;;;;;8.88;68.72;96280.47;5053677;28;20049;-76
2023/02/23 02:33:36;;;;;;;34.53;20.77;;;;;;;8.86;68.86;96269.44;5041198;28;20053;-77
2023/02/23 02:36:26;;;;;;;37.40;22.90;;;;;;;8.86;68.81;96270.25;5054216;28;20057;-76
2023/02/23 02:39:06;;;;;;;31.90;21.25;;;;;;;8.90;68.85;96272.47;5053692;28;20431;-76
2023/02/23 02:41:41;;;;;;;36.17;21.95;;;;;;;8.94;68.92;96268.53;5054308;28;20063;-77
2023/02/23 02:44:15;;;;;;;31.77;22.60;;;;;;;9.01;69.12;96275.44;5054060;28;20041;-77
2023/02/23 02:46:47;;;;;;;35.70;23.15;;;;;;;9.04;68.80;96263.88;5054198;28;20049;-76
2023/02/23 02:49:26;;;;;;;34.35;22.80;;;;;;;9.03;68.45;96262.25;5053573;28;20049;-77
2023/02/23 02:52:00;;;;;;;32.63;22.90;;;;;;;9.00;69.07;96267.81;5054120;28;20128;-77
2023/02/23 02:54:35;;;;;;;33.22;21.58;;;;;;;9.03;68.77;96268.28;5054315;28;20049;-77
2023/02/23 02:57:05;;;;;;;36.85;22.65;;;;;;;9.04;68.33;96274.28;5054853;28;20084;-77
2023/02/23 04:18:18;;;;;;;34.15;21.38;;;;;;;9.14;69.39;96280.03;5012958;28;20052;-80
2023/02/23 04:20:45;;;;;;;33.20;22.20;;;;;;;9.12;69.31;96275.97;5013414;28;20052;-80
2023/02/23 04:23:13;;;;;;;33.38;20.70;;;;;;;9.08;69.48;96271.13;5013528;28;20046;-79
2023/02/23 04:25:40;;;;;;;35.42;23.70;;;;;;;9.06;69.44;96278.31;5013540;28;20468;-80
2023/02/23 04:28:08;;;;;;;38.30;23.73;;;;;;;9.04;69.57;96284.69;5024364;28;20065;-80
2023/02/23 04:30:36;;;;;;;32.72;20.83;;;;;;;9.02;69.86;96281.44;5035419;28;20034;-80
2023/02/23 04:33:04;;;;;;;38.20;23.00;;;;;;;8.99;69.88;96277.41;5032179;28;20054;-80
2023/02/23 04:35:33;;;;;;;32.85;21.50;;;;;;;8.98;70.36;96280.19;5016065;28;20042;-79
2023/02/23 04:38:01;;;;;;;39.53;25.05;;;;;;;8.96;70.46;96280.38;5013339;28;20088;-80
2023/02/23 04:40:28;;;;;;;33.60;21.48;;;;;;;8.97;70.31;96278.59;5013854;28;20133;-80
2023/02/23 04:42:57;;;;;;;37.72;24.10;;;;;;;8.97;70.30;96282.00;5018544;28;20061;-80
2023/02/23 04:45:25;;;;;;;35.83;22.67;;;;;;;8.95;70.22;96281.34;5022130;28;20065;-80
2023/02/23 04:47:53;;;;;;;39.88;22.38;;;;;;;8.94;70.37;96284.13;5019980;28;20081;-80
2023/02/23 04:50:21;;;;;;;32.15;21.83;;;;;;;8.99;70.22;96279.22;5013752;28;20424;-80
2023/02/23 04:52:52;;;;;;;31.67;21.42;;;;;;;8.97;70.07;96279.38;5013882;28;20054;-80
2023/02/23 04:55:21;;;;;;;33.35;20.30;;;;;;;8.93;69.92;96283.34;5013808;28;20052;-80
2023/02/23 04:57:49;;;;;;;33.47;21.30;;;;;;;8.87;70.01;96284.03;5012676;28;20420;-80
2023/02/23 05:00:18;;;;;;;35.25;21.63;;;;;;;8.85;70.30;96286.00;5013190;28;20576;-80
2023/02/23 05:02:45;;;;;;;31.27;21.55;;;;;;;8.83;70.39;96287.97;5013203;28;20515;-80
2023/02/23 05:05:16;;;;;;;33.88;21.42;;;;;;;8.81;70.52;96284.75;5013741;28;20101;-80
2023/02/23 05:07:43;;;;;;;35.08;21.15;;;;;;;8.78;70.73;96283.31;5013039;28;20046;-80
2023/02/23 05:10:13;;;;;;;29.75;21.38;;;;;;;8.75;71.30;96286.28;5012856;28;20053;-79
2023/02/23 05:12:40;;;;;;;35.17;22.35;;;;;;;8.74;71.05;96282.06;5013026;28;20057;-80
2023/02/23 05:15:09;;;;;;;28.77;20.13;;;;;;;8.74;71.50;96289.84;5013425;28;20404;-80
2023/02/23 05:17:39;;;;;;;33.40;21.85;;;;;;;8.74;71.46;96274.25;5013380;28;20504;-80
2023/02/23 05:20:07;;;;;;;34.85;22.15;;;;;;;8.77;71.58;96283.53;5013144;28;20050;-80
2023/02/23 05:22:35;;;;;;;37.10;23.58;;;;;;;8.77;71.32;96276.50;5012857;28;20053;-80
2023/02/23 05:25:03;;;;;;;32.35;22.15;;;;;;;8.78;71.44;96277.31;5012837;28;20053;-80
2023/02/23 05:27:33;;;;;;;33.28;22.52;;;;;;;8.78;71.67;96275.50;5012675;28;20121;-80
2023/02/23 05:30:01;;;;;;;31.90;20.67;;;;;;;8.79;71.45;96277.16;5014845;28;20073;-80
2023/02/23 05:32:28;;;;;;;35.40;22.42;;;;;;;8.80;71.40;96275.34;5019576;28;20054;-80
2023/02/23 05:34:56;;;;;;;33.80;22.23;;;;;;;8.79;71.66;96277.16;5017853;28;20100;-81
2023/02/23 05:37:24;;;;;;;34.83;22.40;;;;;;;8.79;71.99;96276.31;5023144;28;20046;-80
2023/02/23 05:39:51;;;;;;;33.85;21.92;;;;;;;8.78;72.08;96275.50;5015673;28;20054;-80
2023/02/23 05:42:19;;;;;;;34.78;22.02;;;;;;;8.78;72.15;96280.72;5018526;28;20132;-80
2023/02/23 05:44:48;;;;;;;34.65;23.17;;;;;;;8.81;72.37;96277.78;5021288;28;20486;-80
2023/02/23 05:47:16;;;;;;;33.40;22.17;;;;;;;8.83;72.38;96283.59;5017863;28;20050;-80
2023/02/23 05:49:45;;;;;;;35.53;22.58;;;;;;;8.87;72.40;96284.03;5017733;28;20054;-80
2023/02/23 05:52:12;;;;;;;32.35;21.70;;;;;;;8.89;72.25;96282.06;5017164;28;20129;-80
2023/02/23 05:54:40;;;;;;;40.38;24.10;;;;;;;8.86;72.16;96283.25;5016253;28;20056;-80
2023/02/23 05:57:07;;;;;;;33.15;20.83;;;;;;;8.84;72.88;96282.59;5016306;28;20050;-80
2023/02/23 05:59:35;;;;;;;30.75;21.02;;;;;;;8.91;73.91;96285.31;5016030;28;20054;-80
2023/02/23 06:02:04;;;;;;;33.78;22.77;;;;;;;8.95;73.04;96286.56;5016192;28;20112;-80
2023/02/23 06:04:33;;;;;;;36.63;21.73;;;;;;;8.95;72.88;96286.56;5016167;28;20104;-80
2023/02/23 06:07:00;;;;;;;36.78;23.75;;;;;;;8.96;72.84;96288.16;5016060;28;20519;-79
2023/02/23 06:09:28;;;;;;;32.00;21.73;;;;;;;8.98;73.07;96286.19;5015215;28;20056;-80
2023/02/23 06:11:58;;;;;;;33.08;22.88;;;;;;;9.00;72.93;96289.44;5016057;28;20484;-80
2023/02/23 06:14:25;;;;;;;31.08;20.83;;;;;;;9.03;73.46;96294.28;5016168;28;20555;-80
2023/02/23 06:16:53;;;;;;;34.63;21.95;;;;;;;9.11;73.64;96284.78;5015847;28;20133;-79
2023/02/23 06:19:22;;;;;;;31.92;21.88;;;;;;;9.17;74.42;96294.47;5015112;28;20049;-79
2023/02/23 06:21:51;;;;;;;38.40;24.27;;;;;;;9.21;73.71;96296.53;5015067;28;20046;-80
2023/02/23 06:24:33;;;;;;;37.83;24.00;;;;;;;9.29;74.83;96298.22;5129735;27;1226875;-78
2023/02/23 06:27:00;;;;;;;34.65;25.08;;;;;;;9.34;73.71;96297.69;5140093;27;20047;-78
2023/02/23 06:29:28;;;;;;;40.97;26.30;;;;;;;9.33;73.23;96299.47;5113384;28;20433;-79
2023/02/23 06:31:56;;;;;;;36.78;24.30;;;;;;;9.31;73.17;96298.84;5123561;28;20055;-77
2023/02/23 06:34:27;;;;;;;34.15;23.58;;;;;;;9.32;73.27;96305.69;5130609;28;20051;-78
2023/02/23 06:36:54;;;;;;;34.90;22.92;;;;;;;9.33;73.26;96299.47;5130936;28;20047;-77
2023/02/23 06:39:22;;;;;;;38.00;24.80;;;;;;;9.31;73.03;96306.66;5130198;28;20051;-77
2023/02/23 06:41:52;;;;;;;35.78;24.83;;;;;;;9.28;73.24;96314.81;5132515;28;20050;-80
2023/02/23 06:44:19;;;;;;;39.55;22.88;;;;;;;9.25;73.39;96318.59;5138220;28;20130;-80
2023/02/23 06:46:47;;;;;;;38.53;24.08;;;;;;;9.23;73.12;96311.97;5150389;28;20058;-80
2023/02/23 06:49:14;;;;;;;36.15;24.13;;;;;;;9.20;73.29;96307.91;5143344;28;20210;-79
2023/02/23 06:51:43;;;;;;;37.70;22.45;;;;;;;9.19;73.44;96321.91;5132534;28;20131;-78
2023/02/23 06:54:10;;;;;;;40.40;25.20;;;;;;;9.18;73.57;96322.09;5147357;28;20094;-79
2023/02/23 06:56:38;;;;;;;36.35;23.85;;;;;;;9.17;73.51;96320.50;5152454;28;20096;-79
2023/02/23 06:59:07;;;;;;;37.28;25.88;;;;;;;9.18;73.88;96322.09;5154836;27;20106;-78
2023/02/23 07:01:37;;;;;;;39.08;25.13;;;;;;;9.16;74.03;96329.25;5151141;28;20126;-80
2023/02/23 07:04:05;;;;;;;41.72;24.23;;;;;;;9.14;73.99;96331.25;5134806;28;20097;-79
2023/02/23 07:06:33;;;;;;;35.80;23.95;;;;;;;9.13;74.47;96329.63;5141445;27;20027;-78
2023/02/23 07:09:01;;;;;;;37.50;24.42;;;;;;;9.14;74.79;96326.88;5129386;27;20039;-78
2023/02/23 07:11:29;;;;;;;37.53;23.30;;;;;;;9.22;74.72;96333.75;5131510;27;20051;-78
2023/02/23 07:13:57;;;;;;;35.92;25.33;;;;;;;9.31;75.53;96332.69;5130324;28;20049;-76
2023/02/23 07:16:27;;;;;;;35.83;23.73;;;;;;;9.40;74.85;96338.59;5119958;28;20489;-76
2023/02/23 07:18:55;;;;;;;37.67;23.48;;;;;;;9.39;74.13;96340.41;5122525;28;20063;-76
2023/02/23 07:21:23;;;;;;;37.38;23.92;;;;;;;9.36;74.17;96343.38;5125422;27;20048;-76
2023/02/23 07:23:50;;;;;;;33.42;21.90;;;;;;;9.38;74.60;96341.41;5129569;28;20053;-76
2023/02/23 07:26:18;;;;;;;38.28;24.40;;;;;;;9.41;73.86;96338.44;5115698;28;20075;-76
2023/02/23 07:28:46;;;;;;;31.20;20.63;;;;;;;9.44;74.70;96337.25;5126524;28;20044;-76
2023/02/23 07:31:14;;;;;;;35.88;23.90;;;;;;;9.49;75.04;96340.94;5130578;28;20046;-76
2023/02/23 07:33:43;;;;;;;38.67;24.88;;;;;;;9.56;74.87;96342.81;5131150;28;20142;-77
2023/02/23 07:36:11;;;;;;;42.60;26.52;;;;;;;9.56;74.23;96335.00;5117193;28;20055;-77
2023/02/23 07:38:39;;;;;;;35.92;25.40;;;;;;;9.57;74.52;96341.81;5115743;28;20504;-77
2023/02/23 07:41:06;;;;;;;39.17;25.75;;;;;;;9.61;74.38;96337.88;5117142;28;20130;-77
2023/02/23 07:43:34;;;;;;;41.70;26.10;;;;;;;9.65;74.39;96339.13;5116273;28;20141;-77
2023/02/23 07:46:02;;;;;;;37.00;24.90;;;;;;;9.67;74.29;96340.56;5115414;28;20048;-77
2023/02/23 07:48:30;;;;;;;35.70;23.75;;;;;;;9.74;74.65;96345.84;5115668;28;20077;-77
2023/02/23 07:50:58;;;;;;;38.40;25.52;;;;;;;9.81;74.25;96348.53;5115314;28;20051;-76
2023/02/23 07:53:27;;;;;;;36.65;24.83;;;;;;;9.84;73.88;96345.56;5116239;28;20127;-77
2023/02/23 07:55:58;;;;;;;40.47;26.85;;;;;;;9.85;74.27;96352.38;5116674;28;20047;-77
2023/02/23 07:58:25;;;;;;;38.80;24.80;;;;;;;9.86;73.75;96349.59;5114005;28;20050;-77
2023/02/23 08:00:54;;;;;;;39.35;25.63;;;;;;;9.83;73.38;96352.56;5116009;28;20047;-77
2023/02/23 08:03:22;;;;;;;43.75;28.63;;;;;;;9.78;73.29;96352.31;5115316;28;20044;-77
2023/02/23 08:05:50;;;;;;;43.97;28.52;;;;;;;9.75;73.69;96350.06;5125460;28;20087;-76
2023/02/23 08:08:19;;;;;;;44.90;27.38;;;;;;;9.74;73.56;96348.44;5116773;28;20108;-77
2023/02/23 08:10:47;;;;;;;41.40;28.75;;;;;;;9.72;73.54;96347.81;5127341;28;20043;-77
2023/02/23 08:13:16;;;;;;;50.08;28.40;;;;;;;9.70;73.28;96347.19;5100770;28;20522;-77
2023/02/23 08:15:44;;;;;;;48.40;29.88;;;;;;;9.67;73.58;96350.97;5117358;28;20047;-79
2023/02/23 08:18:11;;;;;;;57.78;34.13;;;;;;;9.66;74.09;96351.16;5114651;28;20063;-78
2023/02/23 08:20:39;;;;;;;55.33;35.13;;;;;;;9.66;73.99;96351.16;5116025;28;20086;-78
2023/02/23 08:23:07;;;;;;;54.05;32.25;;;;;;;9.70;74.83;96352.41;5115229;28;20058;-78
2023/02/23 08:25:36;;;;;;;48.55;30.23;;;;;;;9.76;74.29;96356.09;5120698;28;20111;-79
2023/02/23 08:28:05;;;;;;;46.00;28.75;;;;;;;9.78;74.03;96362.72;5132579;28;20044;-78
2023/02/23 08:30:34;;;;;;;45.70;29.77;;;;;;;9.82;73.79;96360.56;5121963;28;20067;-79
2023/02/23 08:33:01;;;;;;;44.78;26.85;;;;;;;9.84;73.57;96358.59;5116386;28;20050;-79
2023/02/23 08:35:29;;;;;;;42.42;27.58;;;;;;;9.86;73.48;96361.78;5115225;28;20054;-79
2023/02/23 08:37:57;;;;;;;41.78;26.63;;;;;;;9.88;73.71;96365.03;5108170;28;20082;-77
2023/02/23 08:40:26;;;;;;;43.47;26.30;;;;;;;9.92;73.80;96365.47;5114214;28;20056;-77
2023/02/23 08:42:55;;;;;;;41.13;25.25;;;;;;;9.96;73.93;96362.31;5114638;28;20122;-78
2023/02/23 08:45:23;;;;;;;36.35;23.77;;;;;;;10.02;73.52;96360.78;5114327;28;20047;-79
2023/02/23 08:47:51;;;;;;;41.15;25.48;;;;;;;10.04;73.47;96358.81;5112810;28;20134;-77
2023/02/23 08:50:18;;;;;;;36.65;22.88;;;;;;;10.07;74.02;96358.44;5114035;28;20048;-78
2023/02/23 08:52:46;;;;;;;37.13;23.08;;;;;;;10.14;73.73;96353.28;5113348;28;20057;-77
2023/02/23 08:55:15;;;;;;;36.95;23.58;;;;;;;10.21;73.46;96354.97;5113272;28;20040;-77
2023/02/23 08:57:43;;;;;;;36.50;23.73;;;;;;;10.30;73.53;96361.72;5114596;28;20048;-78
2023/02/23 09:00:15;;;;;;;39.70;25.20;;;;;;;10.35;73.71;96361.16;5113004;28;20079;-78
2023/02/23 09:02:46;;;;;;;33.10;22.23;;;;;;;10.43;74.17;96357.59;5113312;28;20082;-77
2023/02/23 09:05:14;;;;;;;35.95;22.67;;;;;;;10.52;74.20;96369.56;5103745;28;20043;-78
2023/02/23 09:07:43;;;;;;;34.28;22.35;;;;;;;10.62;74.45;96364.00;5114107;28;20126;-77
2023/02/23 09:10:12;;;;;;;27.95;19.65;;;;;;;10.66;72.86;96358.22;5113217;28;20420;-77
2023/02/23 09:12:40;;;;;;;27.80;18.73;;;;;;;10.67;72.19;96364.22;5113551;28;20081;-77
2023/02/23 09:15:09;;;;;;;29.42;17.45;;;;;;;10.66;71.89;96373.06;5114351;28;20130;-77
2023/02/23 09:17:38;;;;;;;22.92;16.90;;;;;;;10.71;72.96;96368.91;5112144;28;20047;-77
2023/02/23 09:20:06;;;;;;;25.95;17.48;;;;;;;10.76;72.22;96368.34;5119043;27;20057;-78
2023/02/23 09:22:34;;;;;;;27.17;17.60;;;;;;;10.80;71.83;96372.19;5123101;27;20051;-78
2023/02/23 09:25:04;;;;;;;26.42;17.77;;;;;;;10.89;72.92;96368.44;5112665;28;20080;-78
2023/02/23 09:27:32;;;;;;;24.15;16.85;;;;;;;10.95;72.88;96366.88;5113898;28;20048;-77
2023/02/23 09:29:59;;;;;;;25.85;17.40;;;;;;;11.00;72.53;96376.75;5112569;28;20052;-77
2023/02/23 09:32:27;;;;;;;23.92;16.73;;;;;;;11.05;71.82;96377.78;5113655;28;20374;-78
2023/02/23 09:34:56;;;;;;;23.02;15.95;;;;;;;11.11;72.37;96381.47;5113580;28;20043;-78
2023/02/23 09:37:23;;;;;;;21.00;14.80;;;;;;;11.16;72.25;96375.66;5129243;22;20105;-75
2023/02/23 09:39:51;;;;;;;22.23;16.10;;;;;;;11.19;71.74;96378.69;5064089;28;20048;-77
2023/02/23 09:42:35;;;;;;;19.58;12.40;;;;;;;11.21;70.33;96373.28;5062392;28;20040;-76
2023/02/23 09:45:12;;;;;;;18.38;11.95;;;;;;;11.20;70.26;96379.50;5058087;28;20094;-75
2023/02/23 09:47:50;;;;;;;17.10;12.25;;;;;;;11.21;70.13;96378.50;5052700;28;20135;-76
2023/02/23 09:50:23;;;;;;;15.15;11.05;;;;;;;11.19;70.03;96377.88;5063569;28;20056;-75
2023/02/23 09:52:56;;;;;;;14.95;10.52;;;;;;;11.23;71.18;96377.31;5058448;28;20045;-76
2023/02/23 09:55:25;;;;;;;12.10;8.85;;;;;;;11.29;71.03;96381.78;5053875;28;20087;-75
2023/02/23 09:57:54;;;;;;;14.30;8.82;;;;;;;11.36;71.26;96389.66;5051888;28;20503;-75
2023/02/23 10:00:26;;;;;;;18.70;8.70;;;;;;;11.38;69.87;96387.66;5056878;28;20104;-75
2023/02/23 10:03:16;;;;;;;12.43;8.32;;;;;;;11.36;69.29;96383.63;5058202;28;20076;-75
2023/02/23 10:05:48;;;;;;;14.88;8.18;;;;;;;11.33;70.49;96380.41;5054166;28;20579;-76
2023/02/23 10:08:26;;;;;;;10.55;7.35;;;;;;;11.40;70.32;96387.47;5059407;28;20051;-76
2023/02/23 10:11:02;;;;;;;12.27;8.23;;;;;;;11.44;69.21;96380.88;5068608;28;20048;-76
2023/02/23 10:13:39;;;;;;;13.35;7.90;;;;;;;11.42;69.09;96382.88;5064792;28;20055;-75
2023/02/23 10:16:15;;;;;;;11.35;7.85;;;;;;;11.40;68.85;96383.03;5054337;28;20503;-75
2023/02/23 10:18:50;;;;;;;10.48;7.38;;;;;;;11.41;69.15;96391.69;5065268;28;20050;-75
2023/02/23 10:21:29;;;;;;;13.00;8.93;;;;;;;11.44;70.29;96392.13;5060829;28;20100;-76
2023/02/23 10:24:00;;;;;;;14.50;9.52;;;;;;;11.45;69.20;96392.91;5057048;28;20059;-74
2023/02/23 10:26:35;;;;;;;12.40;7.75;;;;;;;11.43;69.16;96395.72;5053360;28;20570;-75
2023/02/23 10:29:05;;;;;;;9.98;6.20;;;;;;;11.42;69.30;96391.50;5051351;28;20067;-75
2023/02/23 10:31:41;;;;;;;9.43;6.30;;;;;;;11.42;69.47;96391.50;5060462;28;20477;-75
2023/02/23 10:34:14;;;;;;;8.93;5.72;;;;;;;11.41;68.56;96387.25;5058765;28;20045;-75
2023/02/23 10:36:45;;;;;;;;;;;;;;;11.40;68.89;96396.09;5064844;28;20131;-75
2023/02/23 10:39:13;;;;;;;13.35;8.43;;;;;;;11.39;69.53;96391.91;5070992;28;20294;-75
2023/02/23 10:41:42;;;;;;;19.80;12.25;;;;;;;11.38;68.77;96387.66;5052081;28;20422;-74
2023/02/23 10:44:19;;;;;;;19.35;8.75;;;;;;;11.33;68.48;96385.63;5065817;28;20545;-75
2023/02/23 10:46:51;;;;;;;11.20;7.13;;;;;;;11.29;69.13;96389.59;5058529;28;20503;-75
2023/02/23 10:49:28;;;;;;;11.10;7.35;;;;;;;11.28;68.69;96388.00;5052347;28;20092;-75
2023/02/23 10:52:01;;;;;;;10.00;6.43;;;;;;;11.26;68.76;96394.41;5068788;28;20118;-75
2023/02/23 10:54:38;;;;;;;10.18;5.82;;;;;;;11.26;68.74;96391.78;5060893;28;20096;-75
2023/02/23 10:57:07;;;;;;;8.80;5.68;;;;;;;11.28;69.43;96392.41;5059898;28;20094;-74
2023/02/23 10:59:35;;;;;;;8.73;5.53;;;;;;;11.36;69.25;96387.03;5059815;28;20087;-75
2023/02/23 11:02:22;;;;;;;16.33;9.77;;;;;;;11.39;68.80;96389.28;5071881;28;20550;-75
2023/02/23 11:04:52;;;;;;;13.63;9.25;;;;;;;11.38;68.21;96389.47;5067908;28;20052;-76
2023/02/23 11:07:28;;;;;;;12.30;8.48;;;;;;;11.42;68.89;96394.09;5071390;28;20425;-75
2023/02/23 11:09:58;;;;;;;11.75;6.88;;;;;;;11.51;69.25;96390.34;5057486;28;20048;-75
2023/02/23 11:12:28;;;;;;;10.80;7.07;;;;;;;11.55;68.33;96385.53;5057143;28;20052;-75
2023/02/23 11:14:57;;;;;;;8.68;6.10;;;;;;;11.58;68.70;96389.56;5055902;28;20574;-75
2023/02/23 11:17:29;;;;;;;13.50;5.85;;;;;;;11.62;67.98;96383.78;5080384;28;20044;-75
2023/02/23 11:20:02;;;;;;;8.48;4.95;;;;;;;11.65;69.06;96388.59;5074984;28;20071;-76
2023/02/23 11:22:35;;;;;;;7.28;4.70;;;;;;;11.71;69.13;96381.81;5081761;28;20055;-75
2023/02/23 11:25:15;;;;;;;7.18;4.68;;;;;;;11.75;67.66;96373.38;5074360;28;20045;-75
2023/02/23 11:27:50;;;;;;;5.65;3.80;;;;;;;11.81;68.09;96376.22;5066352;28;20059;-75
2023/02/23 11:30:21;;;;;;;5.80;3.92;;;;;;;11.87;67.95;96373.66;5057155;28;20102;-75
2023/02/23 11:32:51;;;;;;;5.45;3.47;;;;;;;11.92;67.92;96368.66;5073426;28;20099;-74
2023/02/23 11:35:29;;;;;;;5.45;3.90;;;;;;;12.01;67.85;96365.88;5056880;28;20423;-75
2023/02/23 11:37:58;;;;;;;5.18;3.70;;;;;;;12.07;67.62;96365.91;5066955;28;20502;-75
2023/02/23 11:40:28;;;;;;;5.85;3.63;;;;;;;12.12;67.22;96357.47;5054880;28;20057;-75
2023/02/23 11:42:57;;;;;;;6.75;3.80;;;;;;;12.19;66.47;96362.72;5065002;28;20060;-75
2023/02/23 11:45:26;;;;;;;5.15;3.28;;;;;;;12.26;66.36;96353.84;5057303;28;20080;-77
2023/02/23 11:47:58;;;;;;;5.65;3.60;;;;;;;12.31;66.13;96355.88;5055533;28;20156;-75
2023/02/23 11:50:28;;;;;;;7.55;4.25;;;;;;;12.34;65.48;96351.06;5059374;28;20469;-75
2023/02/23 11:53:01;;;;;;;8.15;3.85;;;;;;;12.39;65.91;96357.50;5063539;28;20128;-75
2023/02/23 11:55:31;;;;;;;7.05;4.05;;;;;;;12.43;65.34;96363.97;5073629;28;20055;-77
2023/02/23 11:58:09;;;;;;;8.57;5.20;;;;;;;12.47;64.85;96352.09;5064040;28;20045;-76
2023/02/23 12:00:36;;;;;;;10.52;4.70;;;;;;;12.51;64.47;96350.69;5070500;28;20052;-76
2023/02/23 12:03:05;;;;;;;7.18;3.90;;;;;;;12.55;64.69;96347.47;5063971;28;20430;-77
2023/02/23 12:05:33;;;;;;;6.95;4.75;;;;;;;12.62;64.29;96342.25;5055810;28;20099;-77
2023/02/23 12:08:06;;;;;;;7.70;4.32;;;;;;;12.64;63.83;96344.66;5069831;28;20048;-77
2023/02/23 12:10:38;;;;;;;6.35;3.30;;;;;;;12.67;64.27;96344.25;5054703;28;20118;-77
2023/02/23 12:13:25;;;;;;;8.00;4.00;;;;;;;12.67;63.88;96339.81;5057577;28;20518;-77
2023/02/23 12:15:58;;;;;;;10.68;5.55;;;;;;;12.72;64.79;96340.03;5058069;28;20051;-77
2023/02/23 12:18:37;;;;;;;10.02;4.68;;;;;;;12.82;64.77;96336.22;5072826;28;20048;-75
2023/02/23 12:21:17;;;;;;;6.57;4.50;;;;;;;12.85;63.26;96341.84;5061374;28;20041;-77
2023/02/23 12:23:48;;;;;;;8.25;5.20;;;;;;;12.89;63.25;96339.63;5054062;28;20049;-77
2023/02/23 12:26:23;;;;;;;9.45;5.80;;;;;;;12.95;63.47;96330.97;5063169;28;20474;-78
2023/02/23 12:28:58;;;;;;;7.93;5.18;;;;;;;12.99;62.37;96332.97;5073126;28;20055;-77
2023/02/23 12:31:29;;;;;;;7.45;5.15;;;;;;;12.95;62.85;96330.97;5073189;28;20408;-77
2023/02/23 12:34:01;;;;;;;10.20;5.72;;;;;;;12.95;62.70;96328.34;5053480;28;20053;-79
2023/02/23 12:36:37;;;;;;;8.70;5.30;;;;;;;13.02;63.19;96326.53;5066506;28;20040;-80
2023/02/23 12:39:16;;;;;;;7.82;4.90;;;;;;;13.05;63.04;96322.69;5059002;28;20053;-78
2023/02/23 12:41:51;;;;;;;10.10;5.40;;;;;;;13.07;62.08;96318.06;5073259;28;20080;-78
2023/02/23 12:44:31;;;;;;;8.27;5.28;;;;;;;13.13;61.73;96315.41;5066221;28;20072;-78
2023/02/23 12:47:04;;;;;;;7.05;5.28;;;;;;;13.24;62.11;96310.56;5069371;28;20055;-78
2023/02/23 12:49:37;;;;;;;8.25;4.90;;;;;;;13.27;61.41;96310.16;5064660;28;20147;-78
2023/02/23 12:52:13;;;;;;;9.40;4.80;;;;;;;13.31;61.08;96314.00;5053312;28;20049;-78
2023/02/23 12:54:45;;;;;;;14.30;5.63;;;;;;;13.30;60.94;96318.44;5061299;28;20431;-78
2023/02/23 12:57:22;;;;;;;8.18;5.28;;;;;;;13.31;61.75;96308.75;5054132;28;20056;-78
2023/02/23 13:00:35;;;;;;;7.30;5.78;;;;;;;13.36;60.89;96299.28;5059177;28;20051;-78
2023/02/23 13:03:28;;;;;;;11.52;7.00;;;;;;;13.40;60.72;96299.66;5047126;28;20075;-78